createdAt,value
2018-10-06T00:00:21.350Z,99907.75
2018-10-06T00:02:49.235Z,99905.29
2018-10-06T00:05:17.122Z,99906.16
2018-10-06T00:07:45.148Z,99899.94
2018-10-06T00:10:13.092Z,99902.77
2018-10-06T00:12:40.976Z,99906.52
2018-10-06T00:15:09.443Z,99900.30
2018-10-06T00:17:37.627Z,99901.30
2018-10-06T00:20:06.451Z,99898.78
2018-10-06T00:22:34.297Z,99894.31
2018-10-06T00:25:02.284Z,99890.31
2018-10-06T00:27:30.104Z,99895.58
2018-10-06T00:29:57.846Z,99888.46
2018-10-06T00:32:26.348Z,99883.14
2018-10-06T00:34:54.193Z,99887.09
2018-10-06T00:37:22.047Z,99885.52
2018-10-06T00:39:49.866Z,99878.53
2018-10-06T00:42:18.036Z,99884.96
2018-10-06T00:44:46.004Z,99877.13
2018-10-06T00:47:13.963Z,99876.31
2018-10-06T00:49:41.734Z,99874.10
2018-10-06T00:52:09.487Z,99875.75
2018-10-06T00:54:37.371Z,99872.50
2018-10-06T00:57:05.235Z,99870.05
2018-10-06T00:59:33.158Z,99856.22
2018-10-06T01:02:01.316Z,99859.47
2018-10-06T01:04:29.089Z,99860.86
2018-10-06T01:06:56.939Z,99858.73
2018-10-06T01:09:24.875Z,99853.14
2018-10-06T01:11:52.676Z,99854.40
2018-10-06T01:14:20.505Z,99848.44
2018-10-06T01:16:48.279Z,99852.02
2018-10-06T01:19:16.151Z,99846.56
2018-10-06T01:21:44.036Z,99845.10
2018-10-06T01:24:11.839Z,99846.95
2018-10-06T01:26:39.611Z,99843.95
2018-10-06T01:29:07.487Z,99848.59
2018-10-06T01:31:35.381Z,99845.52
2018-10-06T01:34:03.544Z,99846.50
2018-10-06T01:36:31.370Z,99846.64
2018-10-06T01:38:59.371Z,99847.77
2018-10-06T01:41:28.038Z,99843.77
2018-10-06T01:43:55.879Z,99844.46
2018-10-06T01:46:23.720Z,99840.52
2018-10-06T01:48:51.687Z,99841.69
2018-10-06T01:51:19.555Z,99840.31
2018-10-06T01:53:47.423Z,99840.77
2018-10-06T01:56:15.244Z,99828.34
2018-10-06T01:58:43.119Z,99827.73
2018-10-06T02:04:24.603Z,99819.92
2018-10-06T02:06:53.754Z,99820.40
2018-10-06T02:09:21.685Z,99823.81
2018-10-06T02:11:49.704Z,99820.22
2018-10-06T02:14:17.591Z,99823.86
2018-10-06T02:16:45.495Z,99816.97
2018-10-06T02:19:13.285Z,99822.48
2018-10-06T02:21:41.087Z,99825.94
2018-10-06T02:24:08.923Z,99824.61
2018-10-06T02:26:36.880Z,99824.23
2018-10-06T02:29:04.691Z,99824.94
2018-10-06T02:31:32.554Z,99823.99
2018-10-06T02:34:05.980Z,99822.88
2018-10-06T02:36:33.777Z,99819.05
2018-10-06T02:39:01.676Z,99820.25
2018-10-06T02:41:29.588Z,99813.27
2018-10-06T02:43:57.359Z,99812.30
2018-10-06T02:46:25.467Z,99809.84
2018-10-06T02:48:53.349Z,99810.84
2018-10-06T02:51:21.227Z,99802.75
2018-10-06T02:53:49.195Z,99797.80
2018-10-06T02:56:17.086Z,99800.08
2018-10-06T02:58:44.939Z,99796.94
2018-10-06T03:01:12.784Z,99799.05
2018-10-06T03:03:40.602Z,99802.00
2018-10-06T03:12:23.296Z,99790.50
2018-10-06T03:14:51.167Z,99788.10
2018-10-06T03:17:18.935Z,99788.61
2018-10-06T03:19:46.766Z,99789.23
2018-10-06T03:22:14.740Z,99788.97
2018-10-06T03:24:42.555Z,99786.42
2018-10-06T03:27:10.392Z,99794.48
2018-10-06T03:29:38.550Z,99789.86
2018-10-06T03:32:06.421Z,99791.98
2018-10-06T03:34:34.302Z,99781.73
2018-10-06T03:37:02.271Z,99780.27
2018-10-06T03:39:30.138Z,99784.64
2018-10-06T03:41:57.915Z,99790.02
2018-10-06T03:44:25.722Z,99784.64
2018-10-06T03:46:53.515Z,99778.13
2018-10-06T03:49:21.355Z,99777.39
2018-10-06T03:51:49.142Z,99770.28
2018-10-06T03:54:16.924Z,99769.81
2018-10-06T03:56:44.717Z,99759.77
2018-10-06T03:59:13.170Z,99757.56
2018-10-06T04:01:41.111Z,99756.52
2018-10-06T04:04:08.912Z,99755.75
2018-10-06T04:06:36.759Z,99758.45
2018-10-06T04:09:07.447Z,99764.77
2018-10-06T04:11:36.017Z,99756.75
2018-10-06T04:14:04.327Z,99755.97
2018-10-06T04:16:32.131Z,99757.33
2018-10-06T04:19:00.382Z,99753.94
2018-10-06T04:21:32.915Z,99756.02
2018-10-06T04:24:00.804Z,99750.00
2018-10-06T04:26:31.578Z,99755.38
2018-10-06T04:28:59.353Z,99755.02
2018-10-06T04:31:27.633Z,99757.56
2018-10-06T04:33:55.425Z,99753.62
2018-10-06T04:36:23.283Z,99752.05
2018-10-06T04:38:51.135Z,99754.95
2018-10-06T04:41:25.239Z,99753.62
2018-10-06T04:43:53.030Z,99756.58
2018-10-06T04:46:20.857Z,99760.98
2018-10-06T04:48:49.015Z,99755.19
2018-10-06T04:51:16.829Z,99756.55
2018-10-06T04:53:44.695Z,99755.23
2018-10-06T04:56:12.524Z,99748.20
2018-10-06T04:58:40.314Z,99752.14
2018-10-06T05:01:08.110Z,99748.36
2018-10-06T05:03:35.903Z,99741.37
2018-10-06T05:06:03.738Z,99734.57
2018-10-06T05:08:32.435Z,99735.97
2018-10-06T05:11:00.279Z,99736.00
2018-10-06T05:13:28.252Z,99737.89
2018-10-06T05:15:56.315Z,99736.85
2018-10-06T05:18:24.107Z,99730.71
2018-10-06T05:20:51.887Z,99736.85
2018-10-06T05:23:19.743Z,99730.17
2018-10-06T05:25:47.503Z,99725.00
2018-10-06T05:28:15.461Z,99716.86
2018-10-06T05:30:43.306Z,99715.77
2018-10-06T05:33:11.102Z,99713.84
2018-10-06T05:35:38.915Z,99710.02
2018-10-06T05:38:06.844Z,99707.78
2018-10-06T05:40:34.690Z,99711.33
2018-10-06T05:43:02.632Z,99702.30
2018-10-06T05:45:30.451Z,99709.86
2018-10-06T05:47:58.264Z,99708.20
2018-10-06T05:50:26.034Z,99706.94
2018-10-06T05:52:53.869Z,99707.55
2018-10-06T05:55:21.666Z,99709.67
2018-10-06T05:57:49.475Z,99719.13
2018-10-06T06:00:17.311Z,99721.55
2018-10-06T06:02:45.415Z,99725.50
2018-10-06T06:05:14.283Z,99721.91
2018-10-06T06:07:43.435Z,99721.67
2018-10-06T06:10:11.768Z,99718.55
2018-10-06T06:12:39.931Z,99730.55
2018-10-06T06:15:08.055Z,99735.88
2018-10-06T06:17:36.284Z,99740.29
2018-10-06T06:20:04.207Z,99739.36
2018-10-06T06:22:35.931Z,99735.62
2018-10-06T06:25:03.931Z,99735.10
2018-10-06T06:27:31.787Z,99724.38
2018-10-06T06:29:59.623Z,99725.00
2018-10-06T06:32:27.458Z,99725.30
2018-10-06T06:34:55.644Z,99730.30
2018-10-06T06:37:23.667Z,99726.63
2018-10-06T06:39:51.487Z,99725.55
2018-10-06T06:42:19.311Z,99726.41
2018-10-06T06:44:47.111Z,99731.48
2018-10-06T06:47:14.890Z,99734.02
2018-10-06T06:49:42.711Z,99724.25
2018-10-06T06:52:10.565Z,99730.20
2018-10-06T06:54:38.902Z,99728.20
2018-10-06T06:57:07.356Z,99724.97
2018-10-06T06:59:35.219Z,99725.04
2018-10-06T07:02:03.455Z,99720.44
2018-10-06T07:04:31.781Z,99732.97
2018-10-06T07:06:59.627Z,99736.25
2018-10-06T07:09:27.404Z,99735.19
2018-10-06T07:11:55.250Z,99738.81
2018-10-06T07:14:23.168Z,99737.88
2018-10-06T07:16:51.040Z,99732.42
2018-10-06T07:19:18.922Z,99731.07
2018-10-06T07:21:46.842Z,99720.66
2018-10-06T07:24:18.111Z,99717.59
2018-10-06T07:26:46.071Z,99715.62
2018-10-06T07:29:13.872Z,99724.50
2018-10-06T07:31:41.700Z,99727.63
2018-10-06T07:34:09.493Z,99726.16
2018-10-06T07:36:37.641Z,99734.66
2018-10-06T07:39:06.475Z,99736.02
2018-10-06T07:41:34.263Z,99728.37
2018-10-06T07:44:02.126Z,99728.53
2018-10-06T07:46:29.968Z,99721.54
2018-10-06T07:48:57.791Z,99720.31
2018-10-06T07:51:25.670Z,99722.76
2018-10-06T07:53:53.477Z,99718.33
2018-10-06T07:56:21.707Z,99725.77
2018-10-06T07:58:49.585Z,99722.06
2018-10-06T08:01:17.447Z,99720.41
2018-10-06T08:03:45.624Z,99712.45
2018-10-06T08:06:13.486Z,99712.06
2018-10-06T08:08:41.279Z,99713.84
2018-10-06T08:11:09.107Z,99708.97
2018-10-06T08:13:36.859Z,99708.73
2018-10-06T08:16:04.682Z,99711.42
2018-10-06T08:18:32.567Z,99711.50
2018-10-06T08:21:00.359Z,99706.30
2018-10-06T08:23:28.158Z,99706.16
2018-10-06T08:25:55.975Z,99711.48
2018-10-06T08:28:23.771Z,99709.81
2018-10-06T08:30:51.563Z,99705.55
2018-10-06T08:33:19.426Z,99691.62
2018-10-06T08:35:47.215Z,99691.89
2018-10-06T08:38:15.330Z,99697.50
2018-10-06T08:40:43.091Z,99695.41
2018-10-06T08:43:10.877Z,99703.94
2018-10-06T08:45:38.727Z,99702.56
2018-10-06T08:48:06.574Z,99697.80
2018-10-06T08:50:35.407Z,99692.68
2018-10-06T08:53:03.232Z,99697.33
2018-10-06T08:55:31.108Z,99700.20
2018-10-06T08:57:58.887Z,99699.12
2018-10-06T09:00:26.691Z,99692.40
2018-10-06T09:02:54.573Z,99699.64
2018-10-06T09:05:23.504Z,99698.63
2018-10-06T09:07:51.523Z,99696.84
2018-10-06T09:10:19.293Z,99695.41
2018-10-06T09:12:47.090Z,99699.64
2018-10-06T09:15:14.959Z,99698.14
2018-10-06T09:17:42.768Z,99693.94
2018-10-06T09:20:14.589Z,99694.74
2018-10-06T09:22:42.390Z,99698.83
2018-10-06T09:25:10.239Z,99688.73
2018-10-06T09:27:38.135Z,99690.24
2018-10-06T09:30:06.155Z,99684.46
2018-10-06T09:32:34.294Z,99686.05
2018-10-06T09:35:02.140Z,99676.81
2018-10-06T09:37:29.944Z,99675.17
2018-10-06T09:39:57.895Z,99671.02
2018-10-06T09:42:25.895Z,99674.42
2018-10-06T09:44:53.740Z,99662.77
2018-10-06T09:47:21.581Z,99662.09
2018-10-06T09:49:49.483Z,99664.27
2018-10-06T09:52:17.335Z,99655.97
2018-10-06T09:54:45.157Z,99655.32
2018-10-06T09:57:13.002Z,99656.13
2018-10-06T09:59:40.824Z,99654.22
2018-10-06T10:03:12.883Z,99655.09
2018-10-06T10:05:49.558Z,99649.08
2018-10-06T10:08:17.828Z,99644.83
2018-10-06T10:10:46.573Z,99640.35
2018-10-06T10:13:14.448Z,99634.02
2018-10-06T10:15:42.247Z,99641.38
2018-10-06T10:18:10.358Z,99638.27
2018-10-06T10:20:38.134Z,99629.54
2018-10-06T10:23:06.256Z,99630.66
2018-10-06T10:25:34.061Z,99625.09
2018-10-06T10:28:01.852Z,99620.70
2018-10-06T10:30:29.730Z,99619.10
2018-10-06T10:32:57.528Z,99618.95
2018-10-06T10:35:25.575Z,99616.08
2018-10-06T10:37:53.518Z,99614.97
2018-10-06T10:40:21.474Z,99615.55
2018-10-06T10:42:49.299Z,99613.39
2018-10-06T10:45:22.452Z,99607.50
2018-10-06T10:47:50.336Z,99611.28
2018-10-06T10:50:18.227Z,99600.78
2018-10-06T10:52:46.728Z,99598.14
2018-10-06T10:55:14.580Z,99590.37
2018-10-06T10:57:42.507Z,99592.24
2018-10-06T11:00:10.558Z,99588.80
2018-10-06T11:02:38.371Z,99584.52
2018-10-06T11:05:07.305Z,99585.32
2018-10-06T11:07:35.084Z,99576.46
2018-10-06T11:10:03.328Z,99572.18
2018-10-06T11:12:31.209Z,99564.61
2018-10-06T11:15:02.384Z,99561.05
2018-10-06T11:17:30.188Z,99560.66
2018-10-06T11:19:58.302Z,99548.08
2018-10-06T11:22:26.143Z,99546.33
2018-10-06T11:24:53.979Z,99544.97
2018-10-06T11:27:21.746Z,99532.73
2018-10-06T11:29:49.593Z,99538.14
2018-10-06T11:32:17.434Z,99527.73
2018-10-06T11:34:45.327Z,99533.66
2018-10-06T11:37:13.147Z,99525.14
2018-10-06T11:39:41.241Z,99519.31
2018-10-06T11:42:09.047Z,99517.86
2018-10-06T11:44:37.071Z,99506.31
2018-10-06T11:47:04.920Z,99508.80
2018-10-06T11:49:32.771Z,99505.28
2018-10-06T11:52:00.719Z,99501.67
2018-10-06T11:54:28.607Z,99498.33
2018-10-06T11:56:56.563Z,99495.63
2018-10-06T11:59:24.452Z,99485.75
2018-10-06T12:01:52.419Z,99484.42
2018-10-06T12:04:20.308Z,99476.80
2018-10-06T12:06:48.219Z,99472.73
2018-10-06T12:09:16.171Z,99466.27
2018-10-06T12:11:44.015Z,99467.01
2018-10-06T12:14:11.851Z,99463.73
2018-10-06T12:16:43.251Z,99463.37
2018-10-06T12:19:11.023Z,99463.70
2018-10-06T12:21:38.915Z,99465.08
2018-10-06T12:24:06.857Z,99464.63
2018-10-06T12:26:34.764Z,99454.80
2018-10-06T12:29:02.915Z,99457.07
2018-10-06T12:31:30.687Z,99452.57
2018-10-06T12:33:58.529Z,99445.31
2018-10-06T12:36:26.351Z,99444.41
2018-10-06T12:38:54.135Z,99429.73
2018-10-06T12:41:22.523Z,99435.36
2018-10-06T12:43:50.314Z,99426.92
2018-10-06T12:46:18.118Z,99428.06
2018-10-06T12:48:45.916Z,99426.46
2018-10-06T12:51:13.932Z,99420.91
2018-10-06T12:53:41.718Z,99420.66
2018-10-06T12:56:09.794Z,99413.81
2018-10-06T12:58:37.795Z,99405.69
2018-10-06T13:01:06.170Z,99405.14
2018-10-06T13:03:34.211Z,99401.05
2018-10-06T13:06:02.225Z,99401.05
2018-10-06T13:08:30.016Z,99396.34
2018-10-06T13:10:57.860Z,99391.73
2018-10-06T13:13:25.726Z,99382.52
2018-10-06T13:15:53.524Z,99379.52
2018-10-06T13:18:21.379Z,99382.50
2018-10-06T13:20:49.210Z,99381.84
2018-10-06T13:23:20.235Z,99383.00
2018-10-06T13:25:48.022Z,99375.58
2018-10-06T13:28:16.996Z,99377.13
2018-10-06T13:30:44.783Z,99372.52
2018-10-06T13:33:12.541Z,99375.58
2018-10-06T13:35:40.361Z,99368.80
2018-10-06T13:38:08.198Z,99372.39
2018-10-06T13:40:36.219Z,99371.28
2018-10-06T13:43:04.093Z,99364.98
2018-10-06T13:45:31.928Z,99363.35
2018-10-06T13:47:59.837Z,99359.20
2018-10-06T13:50:27.707Z,99356.02
2018-10-06T13:52:55.506Z,99345.19
2018-10-06T13:55:23.587Z,99344.19
2018-10-06T13:57:51.607Z,99344.59
2018-10-06T14:00:19.474Z,99337.97
2018-10-06T14:02:47.343Z,99336.56
2018-10-06T14:05:15.155Z,99337.45
2018-10-06T14:07:42.957Z,99340.34
2018-10-06T14:10:10.878Z,99340.44
2018-10-06T14:12:38.658Z,99330.87
2018-10-06T14:15:06.584Z,99332.30
2018-10-06T14:17:34.398Z,99328.22
2018-10-06T14:20:02.234Z,99327.14
2018-10-06T14:22:30.035Z,99326.26
2018-10-06T14:24:58.207Z,99329.30
2018-10-06T14:27:26.080Z,99326.67
2018-10-06T14:29:53.839Z,99328.11
2018-10-06T14:32:25.369Z,99321.02
2018-10-06T14:34:53.159Z,99313.95
2018-10-06T14:37:21.109Z,99322.16
2018-10-06T14:39:48.931Z,99319.27
2018-10-06T14:42:16.750Z,99312.30
2018-10-06T14:44:44.587Z,99318.15
2018-10-06T14:47:12.635Z,99314.10
2018-10-06T14:49:40.384Z,99314.87
2018-10-06T14:52:08.224Z,99308.17
2018-10-06T14:54:36.262Z,99308.20
2018-10-06T14:57:04.081Z,99305.78
2018-10-06T14:59:31.929Z,99306.72
2018-10-06T15:01:59.713Z,99303.53
2018-10-06T15:04:27.571Z,99304.21
2018-10-06T15:06:55.374Z,99290.02
2018-10-06T15:09:23.190Z,99284.29
2018-10-06T15:11:51.093Z,99281.36
2018-10-06T15:14:18.885Z,99277.08
2018-10-06T15:16:46.709Z,99275.69
2018-10-06T15:19:14.771Z,99274.48
2018-10-06T15:21:42.596Z,99272.64
2018-10-06T15:24:10.419Z,99275.06
2018-10-06T15:26:38.459Z,99272.47
2018-10-06T15:29:06.258Z,99277.26
2018-10-06T15:31:34.104Z,99270.02
2018-10-06T15:34:02.122Z,99268.20
2018-10-06T15:36:36.777Z,99263.13
2018-10-06T15:39:07.086Z,99265.00
2018-10-06T15:41:34.915Z,99262.37
2018-10-06T15:44:02.800Z,99260.09
2018-10-06T15:46:30.742Z,99262.03
2018-10-06T15:48:58.522Z,99255.36
2018-10-06T15:51:26.391Z,99256.20
2018-10-06T15:53:54.459Z,99259.17
2018-10-06T15:56:22.262Z,99251.10
2018-10-06T15:58:50.175Z,99254.03
2018-10-06T16:01:18.019Z,99252.70
2018-10-06T16:03:45.954Z,99249.25
2018-10-06T16:06:13.959Z,99245.27
2018-10-06T16:08:41.853Z,99250.38
2018-10-06T16:11:09.619Z,99248.81
2018-10-06T16:13:37.416Z,99248.30
2018-10-06T16:16:05.267Z,99243.26
2018-10-06T16:18:33.064Z,99242.22
2018-10-06T16:21:01.187Z,99244.64
2018-10-06T16:23:34.883Z,99248.91
2018-10-06T16:26:02.802Z,99255.07
2018-10-06T16:28:30.687Z,99250.55
2018-10-06T16:30:59.197Z,99253.48
2018-10-06T16:33:27.266Z,99252.17
2018-10-06T16:35:55.128Z,99252.67
2018-10-06T16:38:23.707Z,99255.03
2018-10-06T16:40:52.403Z,99248.88
2018-10-06T16:43:20.863Z,99246.44
2018-10-06T16:45:49.765Z,99249.86
2018-10-06T16:48:19.000Z,99247.63
2018-10-06T16:50:47.454Z,99251.05
2018-10-06T16:53:15.320Z,99251.02
2018-10-06T16:55:44.022Z,99246.42
2018-10-06T16:58:13.042Z,99249.32
2018-10-06T17:00:42.600Z,99243.65
2018-10-06T17:03:12.170Z,99253.69
2018-10-06T17:05:40.828Z,99251.16
2018-10-06T17:08:08.735Z,99257.19
2018-10-06T17:10:36.662Z,99259.25
2018-10-06T17:13:05.195Z,99256.75
2018-10-06T17:15:33.635Z,99253.44
2018-10-06T17:18:02.939Z,99258.48
2018-10-06T17:20:32.653Z,99263.02
2018-10-06T17:23:01.642Z,99259.70
2018-10-06T17:25:33.260Z,99258.22
2018-10-06T17:28:01.232Z,99260.23
2018-10-06T17:30:29.176Z,99262.47
2018-10-06T17:32:56.951Z,99264.70
2018-10-06T17:35:24.827Z,99265.36
2018-10-06T17:37:52.595Z,99266.41
2018-10-06T17:40:20.815Z,99265.27
2018-10-06T17:42:48.616Z,99266.88
2018-10-06T17:45:16.419Z,99273.43
2018-10-06T17:47:44.617Z,99271.19
2018-10-06T17:50:12.665Z,99275.81
2018-10-06T17:52:40.562Z,99269.28
2018-10-06T17:55:08.491Z,99275.02
2018-10-06T17:57:36.600Z,99276.00
2018-10-06T18:00:05.626Z,99274.50
2018-10-06T18:02:33.570Z,99280.50
2018-10-06T18:05:01.381Z,99277.04
2018-10-06T18:07:29.358Z,99281.14
2018-10-06T18:09:57.197Z,99284.30
2018-10-06T18:12:25.099Z,99279.66
2018-10-06T18:14:52.982Z,99280.20
2018-10-06T18:17:20.801Z,99276.14
2018-10-06T18:19:48.707Z,99280.30
2018-10-06T18:22:16.592Z,99284.19
2018-10-06T18:24:44.443Z,99281.88
2018-10-06T18:27:12.450Z,99280.80
2018-10-06T18:29:40.273Z,99289.23
2018-10-06T18:32:08.507Z,99286.02
2018-10-06T18:34:36.335Z,99284.39
2018-10-06T18:37:04.172Z,99285.22
2018-10-06T18:39:32.286Z,99282.09
2018-10-06T18:42:00.293Z,99280.48
2018-10-06T18:44:28.302Z,99287.09
2018-10-06T18:46:59.900Z,99288.36
2018-10-06T18:49:27.852Z,99286.16
2018-10-06T18:51:55.796Z,99286.88
2018-10-06T18:54:23.614Z,99292.78
2018-10-06T18:56:51.427Z,99287.89
2018-10-06T18:59:19.405Z,99291.08
2018-10-06T19:01:47.311Z,99290.70
2018-10-06T19:04:15.428Z,99288.77
2018-10-06T19:06:43.290Z,99291.57
2018-10-06T19:09:11.094Z,99297.25
2018-10-06T19:11:38.879Z,99293.39
2018-10-06T19:14:06.919Z,99294.91
2018-10-06T19:16:34.783Z,99291.57
2018-10-06T19:19:02.627Z,99295.08
2018-10-06T19:21:30.421Z,99292.41
2018-10-06T19:23:58.290Z,99293.89
2018-10-06T19:26:26.119Z,99291.20
2018-10-06T19:28:53.942Z,99290.14
2018-10-06T19:31:21.827Z,99292.27
2018-10-06T19:33:49.695Z,99291.86
2018-10-06T19:36:17.487Z,99290.33
2018-10-06T19:38:45.383Z,99291.72
2018-10-06T19:41:13.364Z,99294.52
2018-10-06T19:43:41.351Z,99295.75
2018-10-06T19:46:09.259Z,99292.34
2018-10-06T19:48:37.147Z,99296.97
2018-10-06T19:51:05.067Z,99299.41
2018-10-06T19:53:33.310Z,99301.96
2018-10-06T19:56:01.208Z,99303.98
2018-10-06T19:58:29.114Z,99305.41
2018-10-06T20:00:57.003Z,99319.20
2018-10-06T20:03:24.819Z,99318.84
2018-10-06T20:05:52.693Z,99323.03
2018-10-06T20:08:20.513Z,99323.42
2018-10-06T20:11:02.960Z,99321.55
2018-10-06T20:14:21.885Z,99331.22
2018-10-06T20:16:58.443Z,99334.84
2018-10-06T20:22:47.100Z,99332.55
2018-10-06T20:25:20.638Z,99335.56
2018-10-06T20:27:48.533Z,99333.59
2018-10-06T20:30:16.316Z,99332.03
2018-10-06T20:32:44.213Z,99337.41
2018-10-06T20:35:12.014Z,99341.50
2018-10-06T20:37:39.971Z,99338.48
2018-10-06T20:40:08.126Z,99335.53
2018-10-06T20:42:35.945Z,99335.53
2018-10-06T20:45:03.816Z,99340.45
2018-10-06T20:47:31.998Z,99338.25
2018-10-06T20:49:59.954Z,99333.76
2018-10-06T20:52:27.810Z,99334.84
2018-10-06T20:54:55.695Z,99335.84
2018-10-06T20:57:23.537Z,99337.16
2018-10-06T20:59:51.351Z,99333.56
2018-10-06T21:02:19.175Z,99333.84
2018-10-06T21:04:47.053Z,99331.27
2018-10-06T21:07:14.891Z,99337.76
2018-10-06T21:09:42.786Z,99326.47
2018-10-06T21:12:10.771Z,99334.35
2018-10-06T21:14:38.592Z,99334.09
2018-10-06T21:17:06.954Z,99331.44
2018-10-06T21:19:34.798Z,99331.29
2018-10-06T21:22:02.747Z,99334.11
2018-10-06T21:24:30.591Z,99329.27
2018-10-06T21:27:02.172Z,99335.39
2018-10-06T21:29:30.321Z,99335.78
2018-10-06T21:31:57.993Z,99332.69
2018-10-06T21:34:25.879Z,99331.58
2018-10-06T21:36:53.707Z,99330.56
2018-10-06T21:39:21.552Z,99333.92
2018-10-06T21:41:49.364Z,99330.97
2018-10-06T21:44:17.157Z,99328.24
2018-10-06T21:46:44.951Z,99324.75
2018-10-06T21:49:12.734Z,99329.89
2018-10-06T21:51:40.527Z,99329.47
2018-10-06T21:54:08.360Z,99328.15
2018-10-06T21:56:36.225Z,99319.92
2018-10-06T21:59:04.487Z,99319.80
2018-10-06T22:01:35.125Z,99318.80
2018-10-06T22:04:03.090Z,99322.67
2018-10-06T22:06:30.928Z,99325.42
2018-10-06T22:08:58.745Z,99318.33
2018-10-06T22:11:26.625Z,99312.61
2018-10-06T22:13:54.466Z,99310.52
2018-10-06T22:16:23.367Z,99313.91
2018-10-06T22:18:51.157Z,99311.03
2018-10-06T22:21:19.204Z,99314.63
2018-10-06T22:23:46.962Z,99313.16
2018-10-06T22:26:14.752Z,99317.55
2018-10-06T22:28:46.390Z,99317.58
2018-10-06T22:31:14.245Z,99321.56
2018-10-06T22:33:42.045Z,99320.28
2018-10-06T22:36:10.135Z,99316.42
2018-10-06T22:38:38.544Z,99316.34
2018-10-06T22:41:06.382Z,99322.22
2018-10-06T22:43:34.190Z,99320.45
2018-10-06T22:46:02.123Z,99321.63
2018-10-06T22:48:29.919Z,99326.84
2018-10-06T22:50:57.719Z,99322.81
2018-10-06T22:53:25.711Z,99322.74
2018-10-06T22:55:53.492Z,99324.05
2018-10-06T22:58:21.298Z,99322.97
2018-10-06T23:00:49.127Z,99324.65
2018-10-06T23:03:17.037Z,99331.83
2018-10-06T23:05:44.747Z,99330.13
2018-10-06T23:08:12.577Z,99335.38
2018-10-06T23:10:40.505Z,99338.25
2018-10-06T23:13:08.292Z,99341.23
2018-10-06T23:15:36.108Z,99343.41
2018-10-06T23:18:03.928Z,99348.47
2018-10-06T23:20:31.727Z,99342.26
2018-10-06T23:22:59.505Z,99343.13
2018-10-06T23:25:27.291Z,99342.77
2018-10-06T23:27:55.048Z,99353.74
2018-10-06T23:30:22.939Z,99354.70
2018-10-06T23:32:53.831Z,99363.19
2018-10-06T23:35:21.596Z,99364.09
2018-10-06T23:37:49.410Z,99368.91
2018-10-06T23:40:17.235Z,99366.68
2018-10-06T23:42:45.256Z,99370.36
2018-10-06T23:45:13.014Z,99370.59
2018-10-06T23:47:40.824Z,99374.43
2018-10-06T23:50:08.659Z,99376.48
2018-10-06T23:52:36.466Z,99368.25
2018-10-06T23:55:04.269Z,99368.56
2018-10-06T23:57:32.089Z,99379.98
2018-10-06T23:59:59.895Z,99375.91
